Weather History for KMCD - March, 2014

Change the Weather History Date:

Sunday, March 30, 2014

  Actual Average Record
Temperature  
Mean Temperature 26 °F -  
Max Temperature 35 °F 37 °F 53 °F (2006)
Min Temperature 18 °F 24 °F 10 °F (1999)
Degree Days  
Heating Degree Days 38    
Moisture  
Dew Point 19 °F    
Average Humidity 69    
Maximum Humidity 82    
Minimum Humidity 49    
Precipitation  
Precipitation 0.00 in - - ()
Sea Level Pressure  
Sea Level Pressure 30.16 in    
Wind  
Wind Speed 5 mph (ESE)    
Max Wind Speed 10 mph    
Max Gust Speed -    
Visibility 10 miles    
Events      
Averages and records for this station are not official NWS values.
T = Trace of Precipitation, MM = Missing Value Source: NWS Daily Summary

Daily Weather History Graph

Daily Weather History Graph

Search for Another Location

Airport or City:

Trip Planner

Search our weather history database for the weather conditions in past years. The results will help you decide how hot, cold, wet, or windy it might be!

Date:

Astronomy

Mar. 30, 2014 Rise Set
Actual Time 7:22 AM EDT 8:04 PM EDT
Civil Twilight 6:52 AM EDT 8:34 PM EDT
Nautical Twilight 6:16 AM EDT 9:10 PM EDT
Astronomical Twilight 5:39 AM EDT 9:47 PM EDT
Moon 7:07 AM EDT (3/30) 8:17 PM EDT (3/30)
Length of Visible Light 13h 42m
Length of Day
12h 42m
Waning Crescent, 0% of the Moon is Illuminated
Mar 30
Waning Crescent
Mar 30
New
Apr 7
First Quarter
Apr 15
Full
Apr 22
Last Quarter

Hourly Weather History & Observations

Time (EDT) Temp. Windchill Dew Point Humidity Pressure Visibility Wind Dir Wind Speed Gust Speed Precip Events Conditions
12:15 AM 24.1 °F 17.0 °F 13.1 °F 63% 30.25 in 10.0 mi NNE 5.8 mph - N/A   Clear
12:36 AM 23.5 °F 16.4 °F 13.1 °F 64% 30.24 in 10.0 mi NNE 5.8 mph - N/A   Clear
12:56 AM 23.0 °F 17.0 °F 12.7 °F 65% 30.23 in 10.0 mi NE 4.6 mph - N/A   Clear
1:15 AM 22.8 °F 16.7 °F 12.6 °F 65% 30.23 in 10.0 mi NE 4.6 mph - N/A   Clear
1:36 AM 22.1 °F 17.4 °F 12.9 °F 68% 30.23 in 10.0 mi NNE 3.5 mph - N/A   Clear
1:56 AM 22.1 °F 15.9 °F 14.0 °F 71% 30.23 in 10.0 mi NNE 4.6 mph - N/A   Clear
2:15 AM 21.0 °F 14.6 °F 13.1 °F 71% 30.23 in 10.0 mi NNE 4.6 mph - N/A   Clear
2:36 AM 21.2 °F 16.4 °F 13.1 °F 71% 30.23 in 10.0 mi East 3.5 mph - N/A   Clear
2:56 AM 21.2 °F - 13.3 °F 72% 30.23 in 10.0 mi Calm Calm - N/A   Clear
3:16 AM 20.3 °F - 13.3 °F 74% 30.22 in 10.0 mi Calm Calm - N/A   Clear
3:36 AM 20.3 °F 15.4 °F 13.1 °F 74% 30.22 in 10.0 mi ESE 3.5 mph - N/A   Clear
3:55 AM 20.7 °F - 13.1 °F 73% 30.22 in 10.0 mi Calm Calm - N/A   Clear
4:16 AM 19.0 °F - 13.1 °F 78% 30.22 in 10.0 mi Calm Calm - N/A   Clear
4:36 AM 19.2 °F - 13.1 °F 77% 30.22 in 10.0 mi Calm Calm - N/A   Clear
4:55 AM 18.5 °F 13.3 °F 12.4 °F 77% 30.23 in 10.0 mi East 3.5 mph - N/A   Clear
5:16 AM 18.9 °F 8.8 °F 12.4 °F 76% 30.22 in 10.0 mi ESE 8.1 mph - N/A   Clear
5:36 AM 22.1 °F 13.7 °F 15.1 °F 74% 30.22 in 10.0 mi ESE 6.9 mph - N/A   Clear
5:55 AM 25.5 °F 18.7 °F 17.1 °F 70% 30.23 in 10.0 mi SE 5.8 mph - N/A   Clear
6:16 AM 19.6 °F 11.7 °F 13.8 °F 78% 30.23 in 10.0 mi SE 5.8 mph - N/A   Clear
6:36 AM 20.1 °F 11.3 °F 15.4 °F 82% 30.23 in 10.0 mi ESE 6.9 mph - N/A   Clear
6:56 AM 24.4 °F 15.6 °F 18.3 °F 78% 30.22 in 10.0 mi ESE 8.1 mph - N/A   Clear
7:16 AM 25.2 °F 18.3 °F 19.4 °F 79% 30.22 in 10.0 mi ESE 5.8 mph - N/A   Clear
7:36 AM 25.5 °F 17.8 °F 20.7 °F 82% 30.22 in 10.0 mi ESE 6.9 mph - N/A   Clear
7:56 AM 25.9 °F 20.3 °F 20.8 °F 81% 30.23 in 10.0 mi SE 4.6 mph - N/A   Clear
8:16 AM 26.4 °F 20.9 °F 21.4 °F 81% 30.23 in 10.0 mi SE 4.6 mph - N/A   Clear
8:35 AM 27.5 °F 20.2 °F 20.5 °F 75% 30.23 in 10.0 mi ESE 6.9 mph - N/A   Clear
8:56 AM 28.4 °F 22.2 °F 19.8 °F 70% 30.23 in 10.0 mi SE 5.8 mph - N/A   Clear
9:16 AM 28.9 °F 22.8 °F 21.4 °F 73% 30.23 in 10.0 mi ESE 5.8 mph - N/A   Clear
9:35 AM 29.1 °F 23.0 °F 21.6 °F 73% 30.22 in 10.0 mi SSE 5.8 mph - N/A   Clear
9:56 AM 29.8 °F 21.5 °F 20.3 °F 68% 30.21 in 10.0 mi SE 9.2 mph - N/A   Clear
10:16 AM 30.2 °F 25.4 °F 20.3 °F 67% 30.21 in 10.0 mi SE 4.6 mph - N/A   Clear
10:35 AM 30.7 °F 26.0 °F 19.8 °F 64% 30.22 in 10.0 mi South 4.6 mph - N/A   Clear
10:56 AM 30.2 °F 24.3 °F 19.0 °F 63% 30.22 in 10.0 mi SSE 5.8 mph - N/A   Clear
11:16 AM 30.2 °F 24.3 °F 19.9 °F 66% 30.21 in 10.0 mi SSE 5.8 mph - N/A   Clear
11:36 AM 31.5 °F 28.1 °F 20.3 °F 63% 30.20 in 10.0 mi SSE 3.5 mph - N/A   Clear
11:56 AM 32.0 °F 24.8 °F 19.0 °F 59% 30.19 in 10.0 mi East 8.1 mph - N/A   Clear
12:16 PM 32.4 °F - 19.6 °F 59% 30.18 in 10.0 mi Calm Calm - N/A   Clear
12:36 PM 32.9 °F 26.7 °F 19.6 °F 58% 30.18 in 10.0 mi SE 6.9 mph - N/A   Clear
12:56 PM 33.4 °F 27.3 °F 16.2 °F 49% 30.18 in 10.0 mi SE 6.9 mph - N/A   Clear
1:16 PM 34.3 °F 28.4 °F 19.6 °F 55% 30.16 in 10.0 mi SSE 6.9 mph - N/A   Clear
1:36 PM 34.7 °F - 19.6 °F 54% 30.17 in 10.0 mi Calm Calm - N/A   Clear
1:56 PM 35.6 °F 30.7 °F 19.6 °F 52% 30.16 in 10.0 mi SE 5.8 mph - N/A   Clear
2:16 PM 34.5 °F 27.9 °F 18.9 °F 53% 30.14 in 10.0 mi East 8.1 mph - N/A   Clear
2:36 PM 33.8 °F 25.8 °F 19.6 °F 56% 30.12 in 10.0 mi East 10.4 mph - N/A   Clear
2:56 PM 34.3 °F 29.2 °F 19.6 °F 55% 30.11 in 10.0 mi East 5.8 mph - N/A   Clear
3:16 PM 33.8 °F 27.0 °F 20.1 °F 57% 30.10 in 10.0 mi East 8.1 mph - N/A   Clear
3:36 PM 32.9 °F 27.5 °F 21.6 °F 63% 30.09 in 10.0 mi East 5.8 mph - N/A   Clear
3:56 PM 33.1 °F 27.7 °F 22.1 °F 64% 30.09 in 10.0 mi East 5.8 mph - N/A   Clear
4:16 PM 33.4 °F 25.9 °F 22.3 °F 64% 30.08 in 10.0 mi East 9.2 mph - N/A   Clear
4:36 PM 33.3 °F 28.9 °F 21.7 °F 63% 30.08 in 10.0 mi East 4.6 mph - N/A   Clear
4:56 PM 34.0 °F 28.8 °F 20.8 °F 59% 30.08 in 10.0 mi East 5.8 mph - N/A   Clear
5:16 PM 34.0 °F 26.6 °F 19.9 °F 56% 30.08 in 10.0 mi East 9.2 mph - N/A   Clear
5:36 PM 33.1 °F 27.7 °F 21.2 °F 62% 30.07 in 10.0 mi East 5.8 mph - N/A   Clear
5:56 PM 32.9 °F 25.9 °F 21.6 °F 63% 30.07 in 10.0 mi East 8.1 mph - N/A   Clear
6:16 PM 33.4 °F 25.9 °F 21.7 °F 62% 30.06 in 10.0 mi ESE 9.2 mph - N/A   Clear
6:36 PM 33.4 °F 26.6 °F 22.1 °F 63% 30.06 in 10.0 mi ESE 8.1 mph - N/A   Clear
6:56 PM 32.2 °F 25.0 °F 24.1 °F 72% 30.06 in 10.0 mi East 8.1 mph - N/A   Clear
7:16 PM 32.0 °F 25.6 °F 23.9 °F 72% 30.06 in 10.0 mi East 6.9 mph - N/A   Clear
7:36 PM 31.5 °F 24.2 °F 23.9 °F 74% 30.07 in 10.0 mi East 8.1 mph - N/A   Clear
7:56 PM 30.2 °F 22.6 °F 23.7 °F 77% 30.07 in 10.0 mi East 8.1 mph - N/A   Clear
8:16 PM 30.2 °F 21.9 °F 23.9 °F 77% 30.07 in 10.0 mi East 9.2 mph - N/A   Clear
8:37 PM 30.0 °F 23.2 °F 23.7 °F 77% 30.08 in 10.0 mi East 6.9 mph - N/A   Clear
8:56 PM 29.8 °F 26.3 °F 22.8 °F 75% 30.08 in 10.0 mi ENE 3.5 mph - N/A   Clear
9:16 PM 29.7 °F 23.7 °F 23.0 °F 76% 30.08 in 10.0 mi East 5.8 mph - N/A   Clear
9:37 PM 29.7 °F 22.0 °F 23.0 °F 76% 30.08 in 10.0 mi East 8.1 mph - N/A   Clear
9:56 PM 28.9 °F 21.1 °F 23.0 °F 78% 30.08 in 10.0 mi East 8.1 mph - N/A   Clear
10:16 PM 29.1 °F 21.3 °F 22.8 °F 77% 30.08 in 10.0 mi East 8.1 mph - N/A   Clear
10:37 PM 29.3 °F 23.2 °F 22.8 °F 77% 30.08 in 10.0 mi East 5.8 mph - N/A   Clear
10:56 PM 28.9 °F 21.1 °F 22.8 °F 78% 30.08 in 10.0 mi East 8.1 mph - N/A   Clear
11:16 PM 29.3 °F 22.3 °F 23.4 °F 78% 30.08 in 10.0 mi East 6.9 mph - N/A   Clear
11:36 PM 29.3 °F 22.3 °F 24.1 °F 81% 30.08 in 10.0 mi East 6.9 mph - N/A   Clear
11:56 PM 29.5 °F 21.8 °F 24.4 °F 81% 30.08 in 10.0 mi East 8.1 mph - N/A   Clear